Time;durP1;ratioP1;P1;durP2;ratioP2;P2;SDS_P1;SDS_P2;PMS_P1;PMS_P2;Temp;Humidity;BMP_temperature;BMP_pressure;BME280_temperature;BME280_humidity;BME280_pressure;Samples;Min_cycle;Max_cycle;Signal;HPM_P1;HPM_P2
2022/09/12 00:01:19;;;;;;;11.07;4.43;;;21.80;69.60;;;;;;5081955;28;20058;-35
2022/09/12 00:03:45;;;;;;;5.82;1.38;;;21.80;70.60;;;;;;5064539;28;20033;-35
2022/09/12 00:06:16;;;;;;;5.03;1.00;;;21.80;71.60;;;;;;5075090;28;20426;-35
2022/09/12 00:08:42;;;;;;;2.38;0.90;;;21.80;70.80;;;;;;5078558;28;20049;-33
2022/09/12 00:11:09;;;;;;;1.38;0.65;;;21.80;71.10;;;;;;5068098;28;20060;-34
2022/09/12 00:13:36;;;;;;;9.02;1.35;;;21.80;70.30;;;;;;5073504;28;20463;-34
2022/09/12 00:16:03;;;;;;;2.03;0.70;;;21.80;70.20;;;;;;5070952;28;20036;-34
2022/09/12 00:18:29;;;;;;;1.65;0.57;;;21.80;70.50;;;;;;5083333;28;20055;-34
2022/09/12 00:20:55;;;;;;;0.90;0.65;;;21.80;70.50;;;;;;5077947;28;20128;-34
2022/09/12 00:23:21;;;;;;;2.13;0.60;;;21.70;70.40;;;;;;5069624;28;20045;-33
2022/09/12 00:25:47;;;;;;;1.05;0.57;;;21.70;70.40;;;;;;5082775;28;20546;-40
2022/09/12 00:28:14;;;;;;;0.75;0.47;;;21.80;69.80;;;;;;5074995;28;20031;-51
2022/09/12 00:30:41;;;;;;;0.80;0.57;;;21.80;69.00;;;;;;5070118;28;20655;-34
2022/09/12 00:33:09;;;;;;;0.52;0.52;;;21.80;69.40;;;;;;5075824;28;20113;-34
2022/09/12 00:35:51;;;;;;;0.82;0.55;;;21.70;69.30;;;;;;5075078;28;20040;-34
2022/09/12 00:38:18;;;;;;;2.05;0.68;;;21.70;69.20;;;;;;5080289;28;20044;-34
2022/09/12 00:40:44;;;;;;;1.93;0.40;;;21.70;69.00;;;;;;5070897;28;20035;-35
2022/09/12 00:43:14;;;;;;;1.60;0.43;;;21.70;68.70;;;;;;5070434;28;20043;-35
2022/09/12 00:45:43;;;;;;;0.82;0.40;;;21.70;68.40;;;;;;5068778;28;20088;-35
2022/09/12 00:48:16;;;;;;;0.60;0.50;;;21.70;68.40;;;;;;5080843;28;20033;-58
2022/09/12 00:50:42;;;;;;;0.57;0.50;;;21.70;68.20;;;;;;5069139;28;20029;-36
2022/09/12 00:53:08;;;;;;;3.50;0.55;;;21.70;67.60;;;;;;5076564;28;20043;-35
2022/09/12 00:55:37;;;;;;;1.50;0.40;;;21.70;68.00;;;;;;5076042;28;20025;-36
2022/09/12 00:58:13;;;;;;;0.45;0.30;;;21.70;66.50;;;;;;5081691;28;20028;-37
2022/09/12 01:00:40;;;;;;;1.83;0.32;;;21.70;66.00;;;;;;5063726;28;20036;-35
2022/09/12 01:03:13;;;;;;;0.55;0.30;;;21.70;65.30;;;;;;5073656;28;20029;-59
2022/09/12 01:05:46;;;;;;;0.40;0.30;;;21.70;66.10;;;;;;5094770;28;20061;-51
2022/09/12 01:08:12;;;;;;;0.75;0.43;;;21.60;65.60;;;;;;5083592;28;20441;-51
2022/09/12 01:10:39;;;;;;;2.17;0.50;;;21.50;67.20;;;;;;5072764;28;20039;-57
2022/09/12 01:13:06;;;;;;;2.28;0.55;;;21.40;67.60;;;;;;5071421;28;20100;-47
2022/09/12 01:15:32;;;;;;;2.80;0.40;;;21.40;67.80;;;;;;5074232;28;20024;-42
2022/09/12 01:18:19;;;;;;;2.50;0.55;;;21.50;67.70;;;;;;5077452;28;20039;-45
2022/09/12 01:21:10;;;;;;;4.28;0.60;;;21.50;67.50;;;;;;5073515;28;20444;-43
2022/09/12 01:23:55;;;;;;;6.47;0.70;;;21.50;67.20;;;;;;5076285;28;20028;-50
2022/09/12 01:26:36;;;;;;;15.25;0.50;;;21.50;66.80;;;;;;5074560;28;20852;-51
2022/09/12 01:29:27;;;;;;;2.58;0.40;;;21.50;67.10;;;;;;5078145;28;20432;-53
2022/09/12 01:32:44;;;;;;;0.95;0.40;;;21.50;69.50;;;;;;5076641;28;20055;-52
2022/09/12 01:35:23;;;;;;;0.50;0.30;;;21.40;66.40;;;;;;5079571;28;20605;-49
2022/09/12 01:37:59;;;;;;;0.55;0.30;;;21.30;65.90;;;;;;5075591;28;20033;-53
2022/09/12 01:40:44;;;;;;;0.50;0.40;;;21.30;65.50;;;;;;5057368;28;20044;-52
2022/09/12 01:43:21;;;;;;;0.20;0.20;;;21.30;65.30;;;;;;5058790;28;20070;-51
2022/09/12 01:46:11;;;;;;;0.82;0.32;;;21.30;65.10;;;;;;5071961;28;20063;-51
2022/09/12 01:48:59;;;;;;;0.20;0.20;;;21.30;64.90;;;;;;5075316;28;20028;-52
2022/09/12 01:51:31;;;;;;;0.30;0.30;;;21.30;64.80;;;;;;5078075;28;20123;-50
2022/09/12 01:54:11;;;;;;;0.30;0.20;;;21.20;64.60;;;;;;5057971;28;20207;-54
2022/09/12 01:56:38;;;;;;;1.27;0.30;;;21.20;64.50;;;;;;5061155;28;20032;-61
2022/09/12 01:59:17;;;;;;;0.30;0.30;;;21.20;64.40;;;;;;5074481;28;20043;-61
2022/09/12 02:01:59;;;;;;;0.30;0.30;;;21.20;64.50;;;;;;5059950;28;20056;-57
2022/09/12 02:04:28;;;;;;;0.30;0.30;;;21.20;64.50;;;;;;5058351;28;20029;-47
2022/09/12 02:07:01;;;;;;;0.30;0.30;;;21.20;64.80;;;;;;5080771;28;20035;-50
2022/09/12 02:09:27;;;;;;;2.22;0.40;;;21.20;65.00;;;;;;5076615;28;20066;-48
2022/09/12 02:11:55;;;;;;;5.85;0.38;;;21.10;65.00;;;;;;5075842;28;20072;-46
2022/09/12 02:14:27;;;;;;;2.55;0.30;;;21.10;65.30;;;;;;5075820;28;21656;-47
2022/09/12 02:16:58;;;;;;;0.80;0.30;;;21.10;65.70;;;;;;5076649;28;20092;-49
2022/09/12 02:19:27;;;;;;;2.72;0.30;;;21.10;66.00;;;;;;5083063;28;20159;-49
2022/09/12 02:21:55;;;;;;;0.95;0.50;;;21.10;66.30;;;;;;5074877;28;20114;-48
2022/09/12 02:24:24;;;;;;;3.45;0.30;;;21.10;66.50;;;;;;5081241;28;20032;-52
2022/09/12 02:26:54;;;;;;;0.50;0.30;;;21.10;66.50;;;;;;5072925;28;20033;-50
2022/09/12 02:29:20;;;;;;;0.57;0.35;;;21.10;66.70;;;;;;5078942;28;20028;-47
2022/09/12 02:31:47;;;;;;;0.20;0.20;;;21.10;66.60;;;;;;5071193;28;20060;-48
2022/09/12 02:34:45;;;;;;;7.07;1.67;;;21.10;66.70;;;;;;5072221;28;20036;-48
2022/09/12 02:37:45;;;;;;;4.25;1.40;;;21.10;67.60;;;;;;5081717;28;20067;-53
2022/09/12 02:40:11;;;;;;;5.50;1.40;;;21.10;68.20;;;;;;5075974;28;20039;-50
2022/09/12 02:42:37;;;;;;;2.47;1.20;;;21.10;68.50;;;;;;5078795;28;20094;-53
2022/09/12 02:45:04;;;;;;;3.45;1.38;;;21.10;68.70;;;;;;5076948;28;20530;-47
2022/09/12 02:47:39;;;;;;;2.13;0.88;;;21.10;68.70;;;;;;5074323;28;20032;-38
2022/09/12 02:50:06;;;;;;;3.00;0.68;;;21.10;69.10;;;;;;5076699;28;20107;-46
2022/09/12 02:52:33;;;;;;;4.53;1.00;;;21.20;69.50;;;;;;5073196;28;20048;-46
2022/09/12 02:54:59;;;;;;;1.87;0.90;;;21.20;70.00;;;;;;5059923;28;20020;-40
2022/09/12 02:57:25;;;;;;;2.55;0.80;;;21.20;70.10;;;;;;5081900;28;20048;-39
2022/09/12 02:59:54;;;;;;;2.90;1.10;;;21.20;70.70;;;;;;5081720;28;20092;-41
2022/09/12 03:02:28;;;;;;;3.22;1.10;;;21.20;71.10;;;;;;5069839;28;20063;-45
2022/09/12 03:05:13;;;;;;;4.93;1.00;;;21.20;71.70;;;;;;5075254;28;20635;-45
2022/09/12 03:08:10;;;;;;;2.13;0.85;;;21.30;72.30;;;;;;5075957;28;20037;-45
2022/09/12 03:10:40;;;;;;;2.90;0.80;;;21.30;72.50;;;;;;5070134;28;20029;-47
2022/09/12 03:13:34;;;;;;;2.85;1.02;;;21.30;72.80;;;;;;5069373;28;20048;-38
2022/09/12 03:16:11;;;;;;;2.40;0.80;;;21.30;72.60;;;;;;5082583;28;20024;-38
2022/09/12 03:18:55;;;;;;;1.98;0.93;;;21.30;72.60;;;;;;5071472;28;20036;-38
2022/09/12 03:21:56;;;;;;;3.72;0.90;;;21.30;73.00;;;;;;5076248;28;20040;-38
2022/09/12 03:24:48;;;;;;;3.00;0.90;;;21.40;73.10;;;;;;5078316;28;20036;-38
2022/09/12 03:27:30;;;;;;;2.00;0.70;;;21.40;73.00;;;;;;5081121;28;20067;-39
2022/09/12 03:29:56;;;;;;;1.90;0.63;;;21.40;73.00;;;;;;5077611;28;20059;-37
2022/09/12 03:32:52;;;;;;;1.95;0.90;;;21.40;72.90;;;;;;5077200;28;21536;-39
2022/09/12 03:35:20;;;;;;;3.17;1.00;;;21.40;72.70;;;;;;5086161;28;20064;-41
2022/09/12 03:37:47;;;;;;;1.67;0.90;;;21.40;72.80;;;;;;5078371;28;20039;-40
2022/09/12 03:40:14;;;;;;;2.90;0.85;;;21.50;72.80;;;;;;5080292;28;20028;-44
2022/09/12 03:42:40;;;;;;;2.13;0.70;;;21.50;72.70;;;;;;5081441;28;20092;-47
2022/09/12 03:45:07;;;;;;;3.42;0.77;;;21.50;72.60;;;;;;5080258;28;20036;-44
2022/09/12 03:47:33;;;;;;;1.73;0.77;;;21.50;72.60;;;;;;5074710;28;22357;-44
2022/09/12 03:50:00;;;;;;;1.33;0.60;;;21.50;72.60;;;;;;5082486;28;20060;-43
2022/09/12 03:52:26;;;;;;;1.90;0.70;;;21.50;72.50;;;;;;5091029;28;20059;-41
2022/09/12 03:54:52;;;;;;;1.40;0.60;;;21.50;72.60;;;;;;5092462;28;20643;-41
2022/09/12 03:57:18;;;;;;;1.20;0.75;;;21.60;72.50;;;;;;5084215;28;20032;-40
2022/09/12 03:59:44;;;;;;;2.10;0.80;;;21.60;72.50;;;;;;5080882;28;20028;-40
2022/09/12 04:02:12;;;;;;;2.20;0.80;;;21.60;72.40;;;;;;5079318;28;21064;-39
2022/09/12 04:04:42;;;;;;;1.20;0.57;;;21.60;72.90;;;;;;5083729;28;20062;-40
2022/09/12 04:07:09;;;;;;;1.00;0.60;;;21.60;72.30;;;;;;5080205;28;20443;-41
2022/09/12 04:09:35;;;;;;;1.98;0.50;;;21.60;72.30;;;;;;5090522;28;20093;-39
2022/09/12 04:12:01;;;;;;;1.88;0.80;;;21.60;72.20;;;;;;5076640;28;20052;-44
2022/09/12 04:14:27;;;;;;;1.70;0.82;;;21.60;72.00;;;;;;5081619;28;20036;-45
2022/09/12 04:16:53;;;;;;;1.17;0.70;;;21.60;72.00;;;;;;5079610;28;20389;-47
2022/09/12 04:19:19;;;;;;;1.90;0.60;;;21.70;72.10;;;;;;5080043;28;20032;-46
2022/09/12 04:21:45;;;;;;;3.00;0.65;;;21.70;72.10;;;;;;5084263;28;20017;-47
2022/09/12 04:24:11;;;;;;;1.05;0.70;;;21.70;72.00;;;;;;5079058;28;20028;-46
2022/09/12 04:26:37;;;;;;;3.15;0.70;;;21.70;72.00;;;;;;5084056;28;20021;-44
2022/09/12 04:29:04;;;;;;;1.15;0.60;;;21.70;72.00;;;;;;5079341;28;20039;-41
2022/09/12 04:31:30;;;;;;;1.77;0.68;;;21.70;72.00;;;;;;5082858;28;20036;-46
2022/09/12 04:33:57;;;;;;;0.90;0.60;;;21.70;71.90;;;;;;5080618;28;20086;-44
2022/09/12 04:36:23;;;;;;;0.98;0.50;;;21.70;71.80;;;;;;5081057;28;20106;-43
2022/09/12 04:38:50;;;;;;;1.38;0.70;;;21.80;71.80;;;;;;5064080;28;20033;-43
2022/09/12 04:41:21;;;;;;;1.60;0.70;;;21.80;71.70;;;;;;5077997;28;20027;-45
2022/09/12 04:43:50;;;;;;;1.20;0.60;;;21.80;71.70;;;;;;5080684;28;20032;-42
2022/09/12 04:46:19;;;;;;;1.23;0.60;;;21.80;71.70;;;;;;5079761;28;20039;-43
2022/09/12 04:48:45;;;;;;;1.40;0.60;;;21.80;71.70;;;;;;5079669;28;20064;-43
2022/09/12 04:51:24;;;;;;;0.80;0.47;;;21.80;71.70;;;;;;5079325;28;20028;-42
2022/09/12 04:53:51;;;;;;;1.52;0.60;;;21.90;71.80;;;;;;5080839;28;21023;-41
2022/09/12 04:56:18;;;;;;;1.20;0.63;;;21.80;71.80;;;;;;5079267;28;20016;-42
2022/09/12 04:58:44;;;;;;;1.13;0.50;;;21.90;71.80;;;;;;5081811;28;20039;-41
2022/09/12 05:01:12;;;;;;;0.82;0.60;;;21.90;71.70;;;;;;5078114;28;20032;-40
2022/09/12 05:03:39;;;;;;;0.70;0.40;;;21.90;71.70;;;;;;5081718;28;20047;-43
2022/09/12 05:06:06;;;;;;;1.48;0.50;;;21.90;71.60;;;;;;5083857;28;20936;-46
2022/09/12 05:08:34;;;;;;;;;;;21.90;71.60;;;;;;5088433;28;20039;-45
2022/09/12 05:11:04;;;;;;;0.90;0.52;;;21.90;71.50;;;;;;5079279;28;19908;-46
2022/09/12 05:13:30;;;;;;;1.05;0.60;;;21.90;71.50;;;;;;5078387;28;20071;-49
2022/09/12 05:16:00;;;;;;;1.42;0.50;;;21.90;71.40;;;;;;5083182;28;20054;-46
2022/09/12 05:18:27;;;;;;;0.95;0.60;;;22.00;71.60;;;;;;5076702;28;20035;-45
2022/09/12 05:20:53;;;;;;;2.40;0.73;;;21.90;71.60;;;;;;5078495;28;20025;-44
2022/09/12 05:23:20;;;;;;;1.80;0.82;;;21.90;71.70;;;;;;5083004;28;20024;-48
2022/09/12 05:25:53;;;;;;;1.60;0.57;;;22.00;71.70;;;;;;5079151;28;20029;-46
2022/09/12 05:28:19;;;;;;;1.80;0.60;;;22.00;71.70;;;;;;5080093;28;20037;-45
2022/09/12 05:30:46;;;;;;;0.90;0.47;;;22.00;72.50;;;;;;5081312;28;20120;-44
2022/09/12 05:33:13;;;;;;;2.22;0.60;;;22.00;71.80;;;;;;5082813;28;20047;-44
2022/09/12 05:35:39;;;;;;;1.23;0.60;;;22.00;71.80;;;;;;5084727;28;20387;-44
2022/09/12 05:38:06;;;;;;;0.95;0.50;;;22.00;71.80;;;;;;5078116;28;20028;-46
2022/09/12 05:40:32;;;;;;;0.73;0.50;;;22.10;71.80;;;;;;5079946;28;20055;-40
2022/09/12 05:42:59;;;;;;;1.47;0.70;;;22.00;71.70;;;;;;5082182;28;20033;-43
2022/09/12 05:45:25;;;;;;;1.20;0.60;;;22.10;71.70;;;;;;5077928;28;20051;-42
2022/09/12 05:47:55;;;;;;;1.23;0.60;;;22.10;71.70;;;;;;5076645;28;20036;-47
2022/09/12 05:50:21;;;;;;;1.77;0.70;;;22.10;71.70;;;;;;5075678;28;20033;-43
2022/09/12 05:52:47;;;;;;;1.25;0.60;;;22.10;71.70;;;;;;5079220;28;20044;-55
2022/09/12 05:55:14;;;;;;;3.60;0.70;;;22.10;71.60;;;;;;5081643;28;20028;-60
2022/09/12 05:57:44;;;;;;;1.83;0.73;;;22.10;71.70;;;;;;5083132;28;20098;-58
2022/09/12 06:00:13;;;;;;;0.95;0.50;;;22.10;71.70;;;;;;5081810;28;20025;-47
2022/09/12 06:02:39;;;;;;;0.50;0.38;;;22.10;71.80;;;;;;5078701;28;20040;-47
2022/09/12 06:05:06;;;;;;;0.60;0.60;;;22.10;71.80;;;;;;5078932;28;20052;-46
2022/09/12 06:07:32;;;;;;;1.00;0.50;;;22.10;71.80;;;;;;5082025;28;20028;-41
2022/09/12 06:09:58;;;;;;;1.08;0.60;;;22.10;71.70;;;;;;5081692;28;20273;-40
2022/09/12 06:12:25;;;;;;;0.90;0.57;;;22.20;71.70;;;;;;5077645;28;20087;-42
2022/09/12 06:14:52;;;;;;;0.73;0.50;;;22.20;71.70;;;;;;5075698;28;20056;-47
2022/09/12 06:17:18;;;;;;;;;;;22.20;71.70;;;;;;5081228;28;20039;-45
2022/09/12 06:19:44;;;;;;;0.70;0.52;;;22.20;71.60;;;;;;5076420;28;19912;-45
2022/09/12 06:22:11;;;;;;;0.75;0.50;;;22.20;71.60;;;;;;5084935;28;20039;-43
2022/09/12 06:24:37;;;;;;;0.87;0.50;;;22.20;71.70;;;;;;5077202;28;20062;-43
2022/09/12 06:27:03;;;;;;;0.60;0.55;;;22.20;71.80;;;;;;5078721;28;20047;-44
2022/09/12 06:29:31;;;;;;;0.60;0.40;;;22.20;71.80;;;;;;5079654;28;20092;-41
2022/09/12 06:31:57;;;;;;;1.33;0.52;;;22.20;71.90;;;;;;5078761;28;20060;-41
2022/09/12 06:34:25;;;;;;;1.77;0.60;;;22.20;71.90;;;;;;5068985;28;20025;-45
2022/09/12 06:36:51;;;;;;;0.60;0.50;;;22.20;72.00;;;;;;5071785;28;20611;-43
2022/09/12 06:39:21;;;;;;;0.73;0.57;;;22.30;71.90;;;;;;5070647;28;20062;-44
2022/09/12 06:41:48;;;;;;;0.98;0.55;;;22.20;71.80;;;;;;5076023;28;20021;-44
2022/09/12 06:44:16;;;;;;;2.15;0.50;;;22.30;71.90;;;;;;5074222;28;20214;-42
2022/09/12 06:46:43;;;;;;;1.13;0.50;;;22.30;71.90;;;;;;5072457;28;20041;-42
2022/09/12 06:49:09;;;;;;;0.63;0.52;;;22.30;71.90;;;;;;5084740;28;20090;-43
2022/09/12 06:51:35;;;;;;;0.95;0.60;;;22.30;71.80;;;;;;5079650;28;20033;-45
2022/09/12 06:54:02;;;;;;;0.63;0.50;;;22.30;71.70;;;;;;5082133;28;20032;-44
2022/09/12 06:56:28;;;;;;;0.60;0.40;;;22.30;71.60;;;;;;5076440;28;20055;-43
2022/09/12 06:58:55;;;;;;;1.17;0.60;;;22.30;71.60;;;;;;5084506;28;20056;-47
2022/09/12 07:01:26;;;;;;;1.17;0.60;;;22.30;71.50;;;;;;5086930;28;20035;-44
2022/09/12 07:03:59;;;;;;;0.52;0.30;;;22.30;71.30;;;;;;5077566;28;20107;-49
2022/09/12 07:06:30;;;;;;;1.05;0.50;;;22.30;71.30;;;;;;5088653;28;20036;-44
2022/09/12 07:09:00;;;;;;;0.52;0.47;;;22.30;71.20;;;;;;5076787;28;20033;-47
2022/09/12 07:11:31;;;;;;;0.70;0.50;;;22.40;71.20;;;;;;5082055;28;20058;-45
2022/09/12 07:13:58;;;;;;;0.50;0.40;;;22.40;71.20;;;;;;5081392;28;20086;-46
2022/09/12 07:16:24;;;;;;;0.73;0.43;;;22.30;71.10;;;;;;5083604;28;20031;-44
2022/09/12 07:18:52;;;;;;;0.52;0.47;;;22.30;71.10;;;;;;5079384;28;20037;-45
2022/09/12 07:21:18;;;;;;;1.05;0.40;;;22.40;71.00;;;;;;5078548;28;20497;-49
2022/09/12 07:23:44;;;;;;;0.85;0.45;;;22.40;71.00;;;;;;5075724;28;20032;-45
2022/09/12 07:26:11;;;;;;;0.75;0.50;;;22.40;71.00;;;;;;5074486;28;20028;-45
2022/09/12 07:28:37;;;;;;;0.40;0.30;;;22.40;70.90;;;;;;5071100;28;20134;-43
2022/09/12 07:31:12;;;;;;;1.80;0.50;;;22.40;70.90;;;;;;5078378;28;20101;-42
2022/09/12 07:33:38;;;;;;;1.13;0.57;;;22.40;70.90;;;;;;5115271;27;20063;-42
2022/09/12 07:36:07;;;;;;;1.50;0.50;;;22.40;70.80;;;;;;5074178;28;20025;-42
2022/09/12 07:38:33;;;;;;;0.88;0.60;;;22.40;70.80;;;;;;5081752;28;20400;-42
2022/09/12 07:41:00;;;;;;;0.63;0.50;;;22.40;70.80;;;;;;5083553;28;20058;-41
2022/09/12 07:43:26;;;;;;;0.65;0.35;;;22.40;70.80;;;;;;5089397;28;20032;-41
2022/09/12 07:45:56;;;;;;;0.93;0.50;;;22.40;70.90;;;;;;5075634;28;20037;-40
2022/09/12 07:48:22;;;;;;;0.93;0.50;;;22.40;70.80;;;;;;5088618;28;20028;-41
2022/09/12 07:51:00;;;;;;;0.93;0.50;;;22.40;70.80;;;;;;5082934;28;20032;-41
2022/09/12 07:53:26;;;;;;;;;;;22.40;70.80;;;;;;5090076;28;20032;-41
2022/09/12 07:55:56;;;;;;;0.47;0.47;;;22.40;70.80;;;;;;5067699;28;19913;-40
2022/09/12 07:58:23;;;;;;;0.82;0.50;;;22.40;70.80;;;;;;5085112;28;20029;-41
2022/09/12 08:00:49;;;;;;;0.88;0.50;;;22.40;70.80;;;;;;5084109;28;20145;-41
2022/09/12 08:03:15;;;;;;;0.93;0.40;;;22.40;70.80;;;;;;5078631;28;20037;-41
2022/09/12 08:05:41;;;;;;;1.08;0.50;;;22.40;70.70;;;;;;5089213;28;20024;-41
2022/09/12 08:08:08;;;;;;;0.88;0.60;;;22.40;70.70;;;;;;5081639;28;20480;-40
2022/09/12 08:10:35;;;;;;;0.70;0.60;;;22.40;70.70;;;;;;5088959;28;20077;-41
2022/09/12 08:13:02;;;;;;;0.40;0.40;;;22.40;70.60;;;;;;5082060;28;20048;-41
2022/09/12 08:15:30;;;;;;;1.60;0.40;;;22.40;70.70;;;;;;5081468;28;20047;-41
2022/09/12 08:17:56;;;;;;;0.95;0.50;;;22.50;70.70;;;;;;5086984;28;20025;-42
2022/09/12 08:20:22;;;;;;;0.73;0.50;;;22.40;70.60;;;;;;5079458;28;20032;-42
2022/09/12 08:22:48;;;;;;;2.72;0.82;;;22.40;70.60;;;;;;5086590;28;20053;-42
2022/09/12 08:25:14;;;;;;;2.55;0.85;;;22.50;71.50;;;;;;5078930;28;20028;-46
2022/09/12 08:27:41;;;;;;;8.20;1.60;;;22.40;71.50;;;;;;5085172;28;20032;-55
2022/09/12 08:30:10;;;;;;;9.90;1.25;;;22.40;71.20;;;;;;5080801;28;20040;-52
2022/09/12 08:33:17;;;;;;;7.50;1.30;;;22.40;70.70;;;;;;5064582;28;20047;-44
2022/09/12 08:35:43;;;;;;;3.40;0.90;;;22.40;70.90;;;;;;5076667;28;20066;-49
2022/09/12 08:38:09;;;;;;;3.85;0.90;;;22.40;70.60;;;;;;5082727;28;20067;-50
2022/09/12 08:40:56;;;;;;;3.45;1.00;;;22.40;70.50;;;;;;5085758;28;20127;-48
2022/09/12 08:43:30;;;;;;;4.05;1.05;;;22.50;70.40;;;;;;5035800;28;20020;-45
2022/09/12 08:46:07;;;;;;;2.35;1.05;;;22.40;70.20;;;;;;5067619;28;20037;-46
2022/09/12 08:48:34;;;;;;;5.80;1.20;;;22.40;70.10;;;;;;5059913;28;20033;-48
2022/09/12 08:51:00;;;;;;;5.57;1.10;;;22.40;70.10;;;;;;5062680;28;20044;-49
2022/09/12 08:53:26;;;;;;;3.72;0.90;;;22.40;70.00;;;;;;5059104;28;20037;-46
2022/09/12 08:55:53;;;;;;;4.43;0.90;;;22.50;69.90;;;;;;5074802;28;20028;-48
2022/09/12 08:58:23;;;;;;;4.50;0.90;;;22.40;69.80;;;;;;5064550;28;20032;-48
2022/09/12 09:01:07;;;;;;;5.38;1.00;;;22.40;69.80;;;;;;5056882;28;20572;-46
2022/09/12 09:03:39;;;;;;;3.28;1.10;;;22.50;69.80;;;;;;5068818;28;20040;-49
2022/09/12 09:06:14;;;;;;;4.22;0.85;;;22.40;69.60;;;;;;5081508;28;20120;-51
2022/09/12 09:09:10;;;;;;;2.05;0.98;;;22.40;69.60;;;;;;5043945;28;20195;-47
2022/09/12 09:11:49;;;;;;;1.95;0.82;;;22.40;70.00;;;;;;5086467;28;20138;-46
2022/09/12 09:14:49;;;;;;;1.60;0.80;;;22.40;70.20;;;;;;5084153;28;20127;-47
2022/09/12 09:17:33;;;;;;;1.52;0.80;;;22.40;69.50;;;;;;5077132;28;20052;-49
2022/09/12 09:20:21;;;;;;;1.80;0.93;;;22.40;69.30;;;;;;5044393;28;20035;-48
2022/09/12 09:22:53;;;;;;;2.55;0.75;;;22.40;68.70;;;;;;5081865;28;20151;-50
2022/09/12 09:25:42;;;;;;;2.22;0.75;;;22.40;68.70;;;;;;5077327;28;20034;-46
2022/09/12 09:28:21;;;;;;;2.58;0.80;;;22.40;68.70;;;;;;5080551;28;20014;-48
2022/09/12 09:30:47;;;;;;;2.80;0.80;;;22.40;68.60;;;;;;5062048;28;20063;-46
2022/09/12 09:33:24;;;;;;;1.55;0.70;;;22.40;68.60;;;;;;5085041;28;20047;-47
2022/09/12 09:36:18;;;;;;;1.58;0.70;;;22.40;68.50;;;;;;5081473;28;20099;-49
2022/09/12 09:38:49;;;;;;;1.67;0.70;;;22.40;68.60;;;;;;5075389;28;20045;-45
2022/09/12 09:41:21;;;;;;;1.67;0.73;;;22.40;68.60;;;;;;5079222;28;20034;-47
2022/09/12 09:43:47;;;;;;;1.75;0.70;;;22.40;68.60;;;;;;5075610;28;20076;-46
2022/09/12 09:46:14;;;;;;;3.53;0.90;;;22.40;68.70;;;;;;5084590;28;20037;-47
2022/09/12 09:48:41;;;;;;;1.67;0.93;;;22.30;68.70;;;;;;5082152;28;20037;-47
2022/09/12 09:51:08;;;;;;;;;;;22.30;68.60;;;;;;5091347;28;20268;-46
2022/09/12 09:53:44;;;;;;;2.53;0.70;;;22.30;68.50;;;;;;5081675;28;19920;-46
2022/09/12 09:56:35;;;;;;;1.23;0.73;;;22.30;68.70;;;;;;5077712;28;20059;-47
2022/09/12 09:59:24;;;;;;;2.10;1.00;;;22.30;68.70;;;;;;5081895;28;20045;-49
2022/09/12 10:02:12;;;;;;;1.83;0.70;;;22.30;68.70;;;;;;5075601;28;20043;-46
2022/09/12 10:04:39;;;;;;;1.65;0.73;;;22.30;68.80;;;;;;5087477;28;20043;-45
2022/09/12 10:07:06;;;;;;;1.95;0.80;;;22.30;68.80;;;;;;5064946;28;20025;-46
2022/09/12 10:09:33;;;;;;;1.42;0.70;;;22.30;68.80;;;;;;5066648;28;20045;-45
2022/09/12 10:12:01;;;;;;;0.98;0.77;;;22.30;68.80;;;;;;5060808;28;20068;-51
2022/09/12 10:14:35;;;;;;;2.65;0.60;;;22.30;68.80;;;;;;5064853;28;20117;-46
2022/09/12 10:17:21;;;;;;;1.70;0.82;;;22.30;68.80;;;;;;5076377;28;20504;-46
2022/09/12 10:19:47;;;;;;;3.25;0.90;;;22.30;68.90;;;;;;5060571;28;20052;-46
2022/09/12 10:22:17;;;;;;;1.42;0.80;;;22.30;68.90;;;;;;5081970;28;20035;-46
2022/09/12 10:24:51;;;;;;;2.28;0.85;;;22.30;68.90;;;;;;5068066;28;20028;-50
2022/09/12 10:27:43;;;;;;;1.98;0.60;;;22.30;68.90;;;;;;5078487;28;20031;-46
2022/09/12 10:30:17;;;;;;;1.42;0.60;;;22.30;68.90;;;;;;5063766;28;20109;-57
2022/09/12 10:32:45;;;;;;;1.42;0.68;;;22.30;68.90;;;;;;5082470;28;20097;-61
2022/09/12 10:35:22;;;;;;;1.25;0.80;;;22.30;69.20;;;;;;5106421;28;20023;-50
2022/09/12 10:37:55;;;;;;;2.42;0.82;;;22.30;69.50;;;;;;5100237;28;20047;-56
2022/09/12 10:40:33;;;;;;;4.20;0.60;;;22.30;69.60;;;;;;5122553;28;20031;-56
2022/09/12 10:43:00;;;;;;;1.45;0.63;;;22.30;69.80;;;;;;5082538;28;20127;-54
2022/09/12 10:45:37;;;;;;;2.53;0.82;;;22.30;69.90;;;;;;5077973;28;20020;-56
2022/09/12 10:48:30;;;;;;;5.43;1.13;;;22.30;70.00;;;;;;5108957;28;20040;-54
2022/09/12 10:50:57;;;;;;;2.65;1.35;;;22.30;70.30;;;;;;5111536;28;20036;-53
2022/09/12 10:53:39;;;;;;;4.80;1.30;;;22.30;70.50;;;;;;5086943;28;20040;-53
2022/09/12 10:56:19;;;;;;;6.57;1.70;;;22.30;70.80;;;;;;5096387;28;20078;-56
2022/09/12 10:58:48;;;;;;;5.15;1.30;;;22.30;71.10;;;;;;5076819;28;20051;-40
2022/09/12 11:01:37;;;;;;;3.80;1.42;;;22.30;71.20;;;;;;5105176;28;20024;-49
2022/09/12 11:04:03;;;;;;;;;;;22.30;71.30;;;;;;5093916;28;20021;-37
2022/09/12 11:06:44;;;;;;;3.80;1.42;;;22.30;71.20;;;;;;5099542;28;19999;-37
2022/09/12 11:09:13;;;;;;;7.15;1.30;;;22.30;71.40;;;;;;5106153;28;20020;-38
2022/09/12 11:11:49;;;;;;;3.20;1.20;;;22.30;71.50;;;;;;5102984;28;20039;-38
2022/09/12 11:14:34;;;;;;;2.90;0.90;;;22.30;71.60;;;;;;5099603;28;20058;-37
2022/09/12 11:17:27;;;;;;;3.78;1.05;;;22.30;71.50;;;;;;5101379;28;20024;-37
2022/09/12 11:20:15;;;;;;;2.72;1.10;;;22.30;71.80;;;;;;5115517;28;20118;-37
2022/09/12 11:23:12;;;;;;;2.20;0.95;;;22.30;71.80;;;;;;5090192;28;20070;-37
2022/09/12 11:26:11;;;;;;;4.05;1.13;;;22.30;71.80;;;;;;5082642;28;20036;-37
2022/09/12 11:29:05;;;;;;;1.80;0.90;;;22.40;71.80;;;;;;5085582;28;20396;-37
2022/09/12 11:31:37;;;;;;;2.72;0.93;;;22.30;71.80;;;;;;5082953;28;20319;-37
2022/09/12 11:34:08;;;;;;;2.17;0.98;;;22.30;71.60;;;;;;5099483;28;20123;-37
2022/09/12 11:37:02;;;;;;;2.63;1.00;;;22.40;71.70;;;;;;5102316;28;20028;-37
2022/09/12 11:39:42;;;;;;;1.80;0.90;;;22.40;71.70;;;;;;5102792;28;20076;-36
2022/09/12 11:42:21;;;;;;;2.08;1.00;;;22.40;71.60;;;;;;5061793;28;20047;-36
2022/09/12 11:45:03;;;;;;;2.97;0.88;;;22.40;71.70;;;;;;5083347;28;20035;-37
2022/09/12 11:47:29;;;;;;;2.03;0.88;;;22.40;71.60;;;;;;5067661;28;20024;-37
2022/09/12 11:49:55;;;;;;;5.30;1.10;;;22.40;71.50;;;;;;5100350;28;20113;-37
2022/09/12 11:52:25;;;;;;;1.83;0.70;;;22.40;71.60;;;;;;5085149;28;20031;-37
2022/09/12 11:55:23;;;;;;;2.88;1.15;;;22.40;71.50;;;;;;5104645;28;20046;-37
2022/09/12 11:57:54;;;;;;;1.83;0.77;;;22.40;71.50;;;;;;5100096;28;20050;-37
2022/09/12 12:00:40;;;;;;;2.85;0.90;;;22.40;71.40;;;;;;5084815;28;20028;-37
2022/09/12 12:03:27;;;;;;;1.80;0.88;;;22.40;71.50;;;;;;5067596;28;20095;-36
2022/09/12 12:06:06;;;;;;;3.28;1.00;;;22.40;71.40;;;;;;5084917;28;20468;-35
2022/09/12 12:08:38;;;;;;;2.33;0.90;;;22.40;71.40;;;;;;5083225;28;20085;-37
2022/09/12 12:11:04;;;;;;;1.95;0.90;;;22.40;71.50;;;;;;5101363;28;20028;-36
2022/09/12 12:14:03;;;;;;;2.17;0.90;;;22.40;71.40;;;;;;5100451;28;20051;-36
2022/09/12 12:16:48;;;;;;;1.20;0.80;;;22.40;71.40;;;;;;5085261;28;20576;-36
2022/09/12 12:19:14;;;;;;;2.63;0.82;;;22.40;71.30;;;;;;5100684;28;20032;-36
2022/09/12 12:21:41;;;;;;;2.25;0.98;;;22.40;71.20;;;;;;5098117;28;20548;-37
2022/09/12 12:24:07;;;;;;;1.10;0.75;;;22.40;71.30;;;;;;5096442;28;20048;-37
2022/09/12 12:26:39;;;;;;;2.00;0.90;;;22.40;71.20;;;;;;5101976;28;20036;-36
2022/09/12 12:29:09;;;;;;;2.90;0.90;;;22.40;71.30;;;;;;5085387;28;20024;-37
2022/09/12 12:32:02;;;;;;;1.13;0.63;;;22.40;71.20;;;;;;5100235;28;20051;-37
2022/09/12 12:34:30;;;;;;;2.17;1.00;;;22.40;71.20;;;;;;5100957;28;20028;-37
2022/09/12 12:36:57;;;;;;;1.63;1.02;;;22.40;71.20;;;;;;5097535;28;20059;-36
2022/09/12 12:39:32;;;;;;;1.10;0.60;;;22.40;71.10;;;;;;5100792;28;20032;-36
2022/09/12 12:42:01;;;;;;;1.17;0.80;;;22.40;71.10;;;;;;5101622;28;20032;-36
2022/09/12 12:44:47;;;;;;;1.67;0.90;;;22.40;71.20;;;;;;5080150;28;20032;-36
2022/09/12 12:47:24;;;;;;;1.52;0.80;;;22.40;71.20;;;;;;5100001;28;20028;-37
2022/09/12 12:50:09;;;;;;;1.48;0.80;;;22.40;71.20;;;;;;5100283;28;20028;-36
2022/09/12 12:52:48;;;;;;;1.77;0.85;;;22.40;71.20;;;;;;5100544;28;20530;-37
2022/09/12 12:55:25;;;;;;;1.42;0.73;;;22.40;71.20;;;;;;5100326;28;20032;-36
2022/09/12 12:57:58;;;;;;;2.85;0.90;;;22.40;71.10;;;;;;5084234;28;20024;-37
2022/09/12 13:00:24;;;;;;;1.65;0.73;;;22.40;71.10;;;;;;5080575;28;20024;-36
2022/09/12 13:02:58;;;;;;;2.30;0.93;;;22.40;71.10;;;;;;5102689;28;20074;-36
2022/09/12 13:05:25;;;;;;;1.85;0.70;;;22.40;71.10;;;;;;5082580;28;20039;-36
2022/09/12 13:08:02;;;;;;;1.70;0.82;;;22.40;71.10;;;;;;5103218;28;20028;-36
2022/09/12 13:10:29;;;;;;;1.70;0.70;;;22.40;71.20;;;;;;5082896;28;20043;-36
2022/09/12 13:13:00;;;;;;;1.52;0.98;;;22.40;71.10;;;;;;5097947;28;20292;-36
2022/09/12 13:15:46;;;;;;;0.88;0.77;;;22.40;71.10;;;;;;5081371;28;20050;-36